| Date | Time | Temp. (oF) | Dew Point (oF) | Rel. Hum. (%) | Press. (in.) | Wind Dir. | Wind Speed (mph) | Hourly Rainfall (in.) |
|
|---|---|---|---|---|---|---|---|---|---|
| 1 | 05/16 | 23:57 | 70 | 51 | 53 | 29.91 | SSW | 4 | 0.00 |
| 2 | 05/16 | 23:00 | 70 | 51 | 52 | 29.92 | S | 2 | 0.00 |
| 3 | 05/16 | 22:00 | 72 | 51 | 48 | 29.93 | SSW | 4 | 0.00 |
| 4 | 05/16 | 21:00 | 73 | 49 | 44 | 29.93 | S | 5 | 0.00 |
| 5 | 05/16 | 20:00 | 76 | 50 | 41 | 29.92 | SSW | 5 | 0.00 |
| 6 | 05/16 | 19:00 | 78 | 49 | 37 | 29.92 | SSW | 10 | 0.00 |
| 7 | 05/16 | 18:00 | 80 | 48 | 34 | 29.92 | SSE | 9 | 0.00 |
| 8 | miss | miss | miss | miss | miss | miss | miss | miss | |
| 9 | 17 | 1 | 73 | 66 | 80 | 34.00 | 05/16/02 | 0 | 0.00 |
| 10 | miss | miss | miss | miss | miss | miss | miss | miss | |
| 11 | 17 | 1 | 73 | 66 | 80 | 34.00 | 05/16/02 | 0 | 0.00 |
| 12 | miss | miss | miss | miss | miss | miss | miss | miss | |
| 13 | 17 | 1 | 73 | 66 | 80 | 34.00 | 05/16/02 | 0 | 0.00 |
| 14 | miss | miss | miss | miss | miss | miss | miss | miss | |
| 15 | 17 | 1 | 73 | 66 | 80 | 34.00 | 05/16/02 | 0 | 0.00 |
| 16 | miss | miss | miss | miss | miss | miss | miss | miss | |
| 17 | 17 | 1 | 73 | 66 | 80 | 34.00 | 05/16/02 | 0 | 0.00 |
| 18 | miss | miss | miss | miss | miss | miss | miss | miss | |
| 19 | 17 | 1 | 73 | 66 | 80 | 34.00 | 05/16/02 | 0 | 0.00 |
| 20 | miss | miss | miss | miss | miss | miss | miss | miss | |
| 21 | 17 | 1 | 73 | 66 | 80 | 34.00 | 05/16/02 | 0 | 0.00 |
| 22 | miss | miss | miss | miss | miss | miss | miss | miss | |
| 23 | 17 | 1 | 73 | 66 | 80 | 34.00 | 05/16/02 | 0 | 0.00 |
| 24 | miss | miss | miss | miss | miss | miss | miss | miss | |
| 25 | 05/16 | 17:04 | 80 | 48 | 33 | 29.93 | SSW | 8 | 0.00 |
| 26 | miss | miss | miss | miss | miss | miss | miss | miss | |
| 27 | 05/16 | 17:04 | 80 | 48 | 33 | 29.93 | SSW | 8 | 0.00 |
| 28 | miss | miss | miss | miss | miss | miss | miss | miss | |
| 29 | 05/16 | 17:04 | 80 | 48 | 33 | 29.93 | SSW | 8 | 0.00 |
| 30 | miss | miss | miss | miss | miss | miss | miss | miss | |
| 31 | 05/16 | 17:04 | 80 | 48 | 33 | 29.93 | SSW | 8 | 0.00 |
| 32 | 05/16 | 17:00 | 80 | 48 | 34 | 29.93 | S | 16 | 0.00 |
| 33 | 05/16 | 16:00 | 80 | 49 | 35 | 29.96 | SSW | 11 | 0.00 |
| 34 | 05/16 | 15:00 | 79 | 48 | 35 | 29.99 | WSW | 12 | 0.00 |
| 35 | 05/16 | 14:00 | 78 | 50 | 39 | 30.02 | SSE | 10 | 0.01 |
| 36 | 05/16 | 13:00 | 76 | 48 | 38 | 30.04 | SW | 7 | 0.00 |
| 37 | 05/16 | 12:00 | 75 | 47 | 38 | 30.07 | WSW | 8 | 0.00 |
| 38 | 05/16 | 11:00 | 74 | 47 | 39 | 30.09 | SSW | 5 | 0.00 |
| 39 | 05/16 | 10:00 | 69 | 49 | 50 | 30.11 | S | 6 | 0.00 |
| 40 | 05/16 | 09:00 | 61 | 46 | 59 | 30.14 | S | 4 | 0.00 |
| 41 | 05/16 | 08:00 | 50 | 49 | 98 | 30.16 | S | 2 | 0.00 |
| 42 | 05/16 | 07:00 | 43 | 42 | 97 | 30.16 | NNW | 0 | 0.00 |
| 43 | 05/16 | 06:00 | 42 | 40 | 96 | 30.16 | NNW | 0 | 0.00 |
| 44 | 05/16 | 05:00 | 43 | 41 | 96 | 30.15 | SW | 0 | 0.00 |
| 45 | 05/16 | 04:00 | 44 | 42 | 95 | 30.15 | SSW | 1 | 0.00 |
| 46 | 05/16 | 03:00 | 45 | 42 | 92 | 30.15 | NNW | 0 | 0.00 |
| 47 | 05/16 | 02:00 | 46 | 43 | 91 | 30.15 | SSW | 2 | 0.00 |
| 48 | 05/16 | 01:00 | 48 | 44 | 87 | 30.14 | SW | 1 | 0.00 |
| 49 | 05/16 | 00:00 | 51 | 44 | 79 | 30.14 | WSW | 2 | -0.01 |
| 50 | 05/15 | 23:00 | 55 | 43 | 66 | 30.13 | SW | 1 | 0.00 |
| 51 | 05/15 | 22:00 | 58 | 41 | 55 | 30.12 | WSW | 1 | 0.00 |
| 52 | 05/15 | 21:00 | 61 | 42 | 50 | 30.11 | SW | 3 | 0.00 |
| 53 | 05/15 | 20:00 | 66 | 41 | 41 | 30.09 | WSW | 2 | 0.00 |
| 54 | 05/15 | 19:00 | 68 | 41 | 38 | 30.07 | WNW | 4 | 0.00 |
| 55 | 05/15 | 18:00 | 69 | 42 | 38 | 30.06 | N | 7 | 0.00 |
| 56 | 05/15 | 17:00 | 68 | 41 | 39 | 30.07 | W | 8 | 0.00 |
| 57 | 05/15 | 16:00 | 68 | 43 | 41 | 30.07 | W | 12 | 0.00 |
| 58 | 05/15 | 15:00 | 67 | 43 | 43 | 30.08 | WNW | 5 | 0.00 |
| 59 | 05/15 | 14:00 | 66 | 42 | 43 | 30.08 | WNW | 6 | 0.00 |
| 60 | 05/15 | 13:00 | 64 | 43 | 47 | 30.09 | WSW | 16 | 0.00 |
| 61 | 05/15 | 12:00 | 62 | 43 | 50 | 30.09 | W | 7 | 0.00 |
| 62 | 05/15 | 11:00 | 61 | 43 | 52 | 30.09 | WSW | 7 | 0.00 |
| 63 | 05/15 | 10:00 | 59 | 41 | 52 | 30.09 | W | 12 | 0.00 |
| 64 | 05/15 | 09:00 | 56 | 43 | 64 | 30.07 | W | 8 | 0.00 |
| 65 | 05/15 | 08:00 | 51 | 41 | 70 | 30.05 | SW | 7 | 0.00 |
| 66 | 05/15 | 07:00 | 47 | 39 | 76 | 30.03 | WSW | 4 | 0.00 |
| 67 | 05/15 | 06:00 | 47 | 39 | 74 | 29.99 | WSW | 3 | 0.00 |
| 68 | 05/15 | 05:00 | 47 | 37 | 69 | 29.96 | W | 4 | 0.00 |
| 69 | 05/15 | 04:00 | 46 | 36 | 69 | 29.94 | SW | 7 | 0.00 |
| 70 | 05/15 | 03:00 | 46 | 39 | 77 | 29.92 | SW | 3 | 0.00 |
| 71 | 05/15 | 02:00 | 47 | 39 | 75 | 29.92 | WSW | 2 | 0.00 |
| 72 | 05/15 | 01:00 | 48 | 39 | 71 | 29.91 | W | 3 | 0.00 |
| 73 | 05/15 | 00:00 | 48 | 39 | 73 | 29.89 | SW | 5 | 0.00 |
| 74 | 05/14 | 23:00 | 50 | 37 | 63 | 29.87 | WNW | 6 | 0.00 |